createdAt,value
2023-01-17T00:00:45.822Z,97762.77
2023-01-17T00:02:51.014Z,97758.33
2023-01-17T00:04:56.206Z,97760.83
2023-01-17T00:07:01.131Z,97758.21
2023-01-17T00:09:06.280Z,97758.03
2023-01-17T00:11:11.776Z,97750
2023-01-17T00:13:16.700Z,97750.2
2023-01-17T00:15:21.714Z,97748.2
2023-01-17T00:17:26.933Z,97736.98
2023-01-17T00:19:32.081Z,97734.88
2023-01-17T00:21:37.232Z,97735.36
2023-01-17T00:23:42.283Z,97724.9
2023-01-17T00:25:47.789Z,97724.73
2023-01-17T00:27:55.031Z,97718.55
2023-01-17T00:30:00.033Z,97715.36
2023-01-17T00:32:05.530Z,97710.42
2023-01-17T00:34:10.921Z,97710.63
2023-01-17T00:36:15.942Z,97709.28
2023-01-17T00:38:21.111Z,97704.44
2023-01-17T00:40:26.557Z,97705.61
2023-01-17T00:42:31.735Z,97708.91
2023-01-17T00:44:37.188Z,97708.99
2023-01-17T00:46:42.964Z,97703.52
2023-01-17T00:48:48.495Z,97699.47
2023-01-17T00:50:53.822Z,97693.59
2023-01-17T00:52:58.896Z,97683.18
2023-01-17T00:55:04.234Z,97672.48
2023-01-17T00:57:10.308Z,97676.63
2023-01-17T00:59:15.412Z,97680.89
2023-01-17T01:01:21.006Z,97687.92
2023-01-17T01:03:27.035Z,97691.5
2023-01-17T01:05:32.259Z,97693.05
2023-01-17T01:07:37.471Z,97688.32
2023-01-17T01:09:42.451Z,97685.39
2023-01-17T01:11:48.095Z,97690.45
2023-01-17T01:13:53.281Z,97688.14
2023-01-17T01:15:58.488Z,97688.81
2023-01-17T01:18:04.236Z,97689.58
2023-01-17T01:20:09.467Z,97678.59
2023-01-17T01:22:14.524Z,97678.16
2023-01-17T01:24:19.704Z,97673.59
2023-01-17T01:26:24.918Z,97674.06
2023-01-17T01:28:30.121Z,97666.12
2023-01-17T01:30:35.335Z,97661.53
2023-01-17T01:32:40.747Z,97662.3
2023-01-17T01:34:45.907Z,97656.28
2023-01-17T01:36:53.164Z,97653.91
2023-01-17T01:38:58.177Z,97650.72
2023-01-17T01:41:03.442Z,97653.17
2023-01-17T01:43:08.860Z,97647.11
2023-01-17T01:45:14.186Z,97643.98
2023-01-17T01:47:21.551Z,97639.51
2023-01-17T01:49:26.757Z,97634.33
2023-01-17T01:51:31.884Z,97624.97
2023-01-17T01:53:36.786Z,97628.33
2023-01-17T01:55:42.208Z,97627.81
2023-01-17T01:57:47.355Z,97629.86
2023-01-17T01:59:52.636Z,97629.09
2023-01-17T02:01:57.894Z,97629.74
2023-01-17T02:04:03.191Z,97621.09
2023-01-17T02:06:09.111Z,97610.83
2023-01-17T02:08:14.248Z,97608.38
2023-01-17T02:10:19.269Z,97613.15
2023-01-17T02:12:24.561Z,97611.41
2023-01-17T02:14:29.588Z,97613.65
2023-01-17T02:16:34.637Z,97611.89
2023-01-17T02:18:40.051Z,97607
2023-01-17T02:20:45.205Z,97606.22
2023-01-17T02:22:50.357Z,97607.09
2023-01-17T02:24:55.412Z,97607.19
2023-01-17T02:27:01.681Z,97611.63
2023-01-17T02:29:06.903Z,97608.11
2023-01-17T02:31:12.113Z,97612.8
2023-01-17T02:33:17.605Z,97614.53
2023-01-17T02:35:22.747Z,97603.77
2023-01-17T02:37:28.189Z,97598.97
2023-01-17T02:39:36.693Z,97598.55
2023-01-17T02:41:42.021Z,97597.17
2023-01-17T02:43:46.941Z,97597.34
2023-01-17T02:45:52.002Z,97597.79
2023-01-17T02:47:57.165Z,97598.84
2023-01-17T02:50:02.440Z,97599.19
2023-01-17T02:52:07.615Z,97596.91
2023-01-17T02:54:13.110Z,97592.73
2023-01-17T02:56:18.220Z,97592.22
2023-01-17T02:58:23.315Z,97596.83
2023-01-17T03:00:28.698Z,97593.98
2023-01-17T03:02:34.262Z,97592.97
2023-01-17T03:04:40.567Z,97588.39
2023-01-17T03:06:45.760Z,97587.27
2023-01-17T03:08:52.067Z,97587.91
2023-01-17T03:10:57.020Z,97583.33
2023-01-17T03:13:02.250Z,97581.22
2023-01-17T03:15:10.313Z,97589.15
2023-01-17T03:17:15.387Z,97585.86
2023-01-17T03:19:20.729Z,97585.35
2023-01-17T03:21:25.980Z,97582.77
2023-01-17T03:23:31.227Z,97583.08
2023-01-17T03:25:36.655Z,97580.14
2023-01-17T03:27:42.084Z,97571.27
2023-01-17T03:29:47.123Z,97577.06
2023-01-17T03:31:53.343Z,97581.48
2023-01-17T03:33:58.606Z,97574.29
2023-01-17T03:36:07.895Z,97582.1
2023-01-17T03:38:13.000Z,97578.38
2023-01-17T03:40:18.262Z,97587.03
2023-01-17T03:42:23.704Z,97585.25
2023-01-17T03:44:28.896Z,97584
2023-01-17T03:46:35.131Z,97581.15
2023-01-17T03:48:40.483Z,97574.61
2023-01-17T03:50:45.902Z,97578.1
2023-01-17T03:52:51.029Z,97570.72
2023-01-17T03:54:56.530Z,97576.4
2023-01-17T03:57:01.691Z,97577.34
2023-01-17T03:59:06.840Z,97575.36
2023-01-17T04:01:15.572Z,97571.32
2023-01-17T04:03:24.652Z,97575.36
2023-01-17T04:05:29.799Z,97577.48
2023-01-17T04:07:35.294Z,97577.94
2023-01-17T04:09:40.342Z,97575.72
2023-01-17T04:11:45.650Z,97571.84
2023-01-17T04:13:50.761Z,97573.28
2023-01-17T04:15:55.848Z,97576.72
2023-01-17T04:18:01.251Z,97572.85
2023-01-17T04:20:06.318Z,97570.8
2023-01-17T04:22:11.777Z,97572.13
2023-01-17T04:24:19.323Z,97567.88
2023-01-17T04:26:24.451Z,97568.41
2023-01-17T04:28:29.545Z,97563.68
2023-01-17T04:30:35.482Z,97567.09
2023-01-17T04:32:40.650Z,97566.03
2023-01-17T04:34:45.764Z,97570.2
2023-01-17T04:36:51.225Z,97573.71
2023-01-17T04:38:56.673Z,97581.98
2023-01-17T04:41:02.036Z,97582.06
2023-01-17T04:43:07.390Z,97580.38
2023-01-17T04:45:12.672Z,97586.8
2023-01-17T04:47:20.922Z,97587.06
2023-01-17T04:49:26.090Z,97589.6
2023-01-17T04:51:33.064Z,97590.17
2023-01-17T04:53:38.109Z,97592.97
2023-01-17T04:55:43.313Z,97599.42
2023-01-17T04:57:48.409Z,97597.94
2023-01-17T04:59:53.772Z,97599.88
2023-01-17T05:01:59.553Z,97600.94
2023-01-17T05:04:07.069Z,97599.05
2023-01-17T05:06:12.288Z,97605.78
2023-01-17T05:08:17.546Z,97609.42
2023-01-17T05:10:22.514Z,97608.21
2023-01-17T05:12:27.788Z,97608.86
2023-01-17T05:14:33.143Z,97608.71
2023-01-17T05:16:40.153Z,97611.03
2023-01-17T05:18:45.411Z,97615.17
2023-01-17T05:20:50.369Z,97614.23
2023-01-17T05:22:55.798Z,97617.19
2023-01-17T05:25:01.178Z,97611.69
2023-01-17T05:27:07.174Z,97611.4
2023-01-17T05:29:12.817Z,97609.74
2023-01-17T05:31:18.339Z,97608.79
2023-01-17T05:33:23.783Z,97606.92
2023-01-17T05:35:28.856Z,97604.83
2023-01-17T05:37:34.065Z,97606.08
2023-01-17T05:39:39.193Z,97605.48
2023-01-17T05:41:44.857Z,97604.19
2023-01-17T05:43:50.269Z,97605.8
2023-01-17T05:45:56.246Z,97606.96
2023-01-17T05:48:01.571Z,97607.76
2023-01-17T05:50:06.919Z,97613.91
2023-01-17T05:52:12.350Z,97620.73
2023-01-17T05:54:18.687Z,97627.41
2023-01-17T05:56:24.197Z,97622.84
2023-01-17T05:58:29.468Z,97624.79
2023-01-17T06:00:34.907Z,97631.51
2023-01-17T06:02:42.765Z,97628.08
2023-01-17T06:04:48.492Z,97630.2
2023-01-17T06:06:54.015Z,97627.64
2023-01-17T06:08:59.494Z,97629.04
2023-01-17T06:11:05.280Z,97630.88
2023-01-17T06:13:12.415Z,97631.91
2023-01-17T06:15:17.612Z,97634.98
2023-01-17T06:17:23.909Z,97635.15
2023-01-17T06:19:29.143Z,97630.95
2023-01-17T06:21:34.416Z,97637.31
2023-01-17T06:23:39.608Z,97644.22
2023-01-17T06:25:46.002Z,97642.94
2023-01-17T06:27:51.512Z,97639.91
2023-01-17T06:29:57.287Z,97641.45
2023-01-17T06:32:03.999Z,97644.05
2023-01-17T06:34:09.926Z,97647.31
2023-01-17T06:36:15.782Z,97650.7
2023-01-17T06:38:23.298Z,97652.88
2023-01-17T06:40:28.694Z,97653.14
2023-01-17T06:42:34.903Z,97657.5
2023-01-17T06:44:40.446Z,97658.39
2023-01-17T06:46:46.482Z,97658.19
2023-01-17T06:48:52.121Z,97655.25
2023-01-17T06:50:57.643Z,97661.14
2023-01-17T06:53:02.844Z,97661.27
2023-01-17T06:55:11.857Z,97662.13
2023-01-17T06:57:17.232Z,97662.7
2023-01-17T06:59:22.914Z,97661.39
2023-01-17T07:01:31.570Z,97655.36
2023-01-17T07:03:41.108Z,97652.13
2023-01-17T07:05:46.745Z,97654.08
2023-01-17T07:07:59.641Z,97657.22
2023-01-17T07:10:05.228Z,97663.66
2023-01-17T07:12:11.313Z,97663.81
2023-01-17T07:14:17.408Z,97673.15
2023-01-17T07:16:23.175Z,97675.84
2023-01-17T07:18:29.063Z,97675.45
2023-01-17T07:20:34.536Z,97667.98
2023-01-17T07:22:40.294Z,97670.25
2023-01-17T07:24:45.964Z,97671.08
2023-01-17T07:26:52.688Z,97671.55
2023-01-17T07:28:58.461Z,97668.69
2023-01-17T07:31:04.332Z,97671.89
2023-01-17T07:33:09.967Z,97663.86
2023-01-17T07:35:15.700Z,97666.67
2023-01-17T07:37:20.764Z,97669.09
2023-01-17T07:39:26.098Z,97678.6
2023-01-17T07:41:31.436Z,97690.44
2023-01-17T07:43:36.659Z,97693.8
2023-01-17T07:45:42.845Z,97698.63
2023-01-17T07:47:48.956Z,97695.98
2023-01-17T07:49:54.540Z,97708.84
2023-01-17T07:51:59.796Z,97715.05
2023-01-17T07:54:05.133Z,97715.66
2023-01-17T07:56:10.415Z,97716.19
2023-01-17T07:58:15.619Z,97713.25
2023-01-17T08:00:22.013Z,97715.03
2023-01-17T08:02:28.101Z,97714.22
2023-01-17T08:04:34.304Z,97712.48
2023-01-17T08:06:39.653Z,97711.16
2023-01-17T08:08:46.163Z,97703.02
2023-01-17T08:10:51.771Z,97696.13
2023-01-17T08:12:57.225Z,97692.29
2023-01-17T08:15:02.598Z,97690.34
2023-01-17T08:17:07.832Z,97692.77
2023-01-17T08:19:13.235Z,97684.73
2023-01-17T08:21:18.592Z,97684.13
2023-01-17T08:23:26.177Z,97688.83
2023-01-17T08:25:34.870Z,97687.98
2023-01-17T08:27:43.478Z,97686.86
2023-01-17T08:29:49.153Z,97684.94
2023-01-17T08:31:57.029Z,97683.85
2023-01-17T08:34:02.200Z,97680.13
2023-01-17T08:36:07.927Z,97682.13
2023-01-17T08:38:13.346Z,97679.25
2023-01-17T08:40:19.109Z,97680.66
2023-01-17T08:42:24.186Z,97681.29
2023-01-17T08:44:29.765Z,97678
2023-01-17T08:46:34.929Z,97675.81
2023-01-17T08:48:41.085Z,97674.3
2023-01-17T08:50:47.196Z,97670.33
2023-01-17T08:52:53.400Z,97672.34
2023-01-17T08:54:58.867Z,97668.41
2023-01-17T08:57:04.027Z,97678.05
2023-01-17T08:59:10.046Z,97671.15
2023-01-17T09:01:15.802Z,97669.7
2023-01-17T09:03:30.214Z,97674.33
2023-01-17T09:05:45.956Z,97670.88
2023-01-17T09:07:58.647Z,97676.6
2023-01-17T09:10:04.499Z,97680.73
2023-01-17T09:12:09.883Z,97682.58
2023-01-17T09:14:16.184Z,97682.8
2023-01-17T09:16:22.685Z,97682.06
2023-01-17T09:18:28.393Z,97680.03
2023-01-17T09:20:40.163Z,97686.36
2023-01-17T09:23:01.751Z,97687.73
2023-01-17T09:25:07.655Z,97690.44
2023-01-17T09:27:13.222Z,97692.3
2023-01-17T09:29:18.839Z,97694.39
2023-01-17T09:31:24.761Z,97699.67
2023-01-17T09:33:30.957Z,97699.92
2023-01-17T09:39:17.492Z,97709.34
2023-01-17T09:41:33.804Z,97703.91
2023-01-17T09:43:42.477Z,97697.17
2023-01-17T09:45:48.211Z,97705.38
2023-01-17T09:48:16.387Z,97710.06
2023-01-17T09:50:24.956Z,97712
2023-01-17T09:52:32.936Z,97714.92
2023-01-17T09:54:39.546Z,97717.61
2023-01-17T09:56:46.401Z,97712.44
2023-01-17T09:58:52.492Z,97719.44
2023-01-17T10:00:58.248Z,97716
2023-01-17T10:03:33.667Z,97716.09
2023-01-17T10:05:42.252Z,97711.08
2023-01-17T10:07:48.494Z,97712.6
2023-01-17T10:09:55.640Z,97712.81
2023-01-17T10:12:01.042Z,97707.78
2023-01-17T10:17:35.143Z,97706.91
2023-01-17T10:20:01.325Z,97713
2023-01-17T10:25:15.437Z,97713.23
2023-01-17T10:30:35.724Z,97720.84
2023-01-17T10:32:42.098Z,97721.58
2023-01-17T10:34:48.466Z,97727.57
2023-01-17T10:36:54.038Z,97723.01
2023-01-17T10:38:59.089Z,97725.82
2023-01-17T10:41:04.181Z,97722.92
2023-01-17T10:43:09.415Z,97725.55
2023-01-17T10:45:14.694Z,97730.33
2023-01-17T10:47:19.779Z,97732.09
2023-01-17T10:49:25.351Z,97733.53
2023-01-17T10:51:30.602Z,97734.2
2023-01-17T10:53:35.870Z,97739.3
2023-01-17T10:55:42.832Z,97735.24
2023-01-17T10:57:48.776Z,97731.72
2023-01-17T10:59:53.935Z,97731.48
2023-01-17T11:01:59.290Z,97734.8
2023-01-17T11:04:06.269Z,97737.53
2023-01-17T11:06:11.790Z,97741.25
2023-01-17T11:08:16.952Z,97745.17
2023-01-17T11:10:22.644Z,97743.16
2023-01-17T11:12:28.587Z,97747.64
2023-01-17T11:14:34.252Z,97742.52
2023-01-17T11:16:40.080Z,97741.81
2023-01-17T11:18:46.338Z,97745.53
2023-01-17T11:20:52.101Z,97749.23
2023-01-17T11:22:57.389Z,97751.55
2023-01-17T11:25:02.644Z,97751.57
2023-01-17T11:27:08.049Z,97750.12
2023-01-17T11:29:17.419Z,97758.08
2023-01-17T11:31:28.198Z,97755.7
2023-01-17T11:33:37.964Z,97756.97
2023-01-17T11:35:45.465Z,97756.23
2023-01-17T11:38:21.313Z,97753.5
2023-01-17T11:40:37.565Z,97759.91
2023-01-17T11:42:54.260Z,97756.61
2023-01-17T11:45:10.828Z,97759.3
2023-01-17T11:47:16.469Z,97753.31
2023-01-17T11:49:22.547Z,97761.17
2023-01-17T11:51:28.568Z,97756.73
2023-01-17T11:53:36.271Z,97751.98
2023-01-17T11:56:32.709Z,97755.47
2023-01-17T11:58:45.923Z,97757.91
2023-01-17T12:03:32.572Z,97767.03
2023-01-17T12:05:38.532Z,97766.69
2023-01-17T12:07:44.473Z,97756.5
2023-01-17T12:09:51.345Z,97754.97
2023-01-17T12:13:02.126Z,97753.67
2023-01-17T12:15:32.396Z,97747.92
